sensor_id;sensor_type;location;lat;lon;timestamp;P1;durP1;ratioP1;P2;durP2;ratioP2
21297;SDS011;10808;48.010;11.326;2023-05-21T00:00:19;10.35;;;7.97;;
21297;SDS011;10808;48.010;11.326;2023-05-21T00:02:45;10.18;;;8.02;;
21297;SDS011;10808;48.010;11.326;2023-05-21T00:05:11;11.63;;;8.10;;
21297;SDS011;10808;48.010;11.326;2023-05-21T00:07:39;10.85;;;8.40;;
21297;SDS011;10808;48.010;11.326;2023-05-21T00:10:06;10.80;;;8.13;;
21297;SDS011;10808;48.010;11.326;2023-05-21T00:12:32;9.63;;;8.10;;
21297;SDS011;10808;48.010;11.326;2023-05-21T00:14:58;9.70;;;8.02;;
21297;SDS011;10808;48.010;11.326;2023-05-21T00:17:26;11.02;;;7.97;;
21297;SDS011;10808;48.010;11.326;2023-05-21T00:19:53;9.55;;;7.63;;
21297;SDS011;10808;48.010;11.326;2023-05-21T00:22:21;9.50;;;7.88;;
21297;SDS011;10808;48.010;11.326;2023-05-21T00:24:47;9.63;;;8.02;;
21297;SDS011;10808;48.010;11.326;2023-05-21T00:27:13;9.00;;;7.93;;
21297;SDS011;10808;48.010;11.326;2023-05-21T00:29:39;8.95;;;8.05;;
21297;SDS011;10808;48.010;11.326;2023-05-21T00:32:05;9.20;;;7.70;;
21297;SDS011;10808;48.010;11.326;2023-05-21T00:34:31;11.98;;;8.13;;
21297;SDS011;10808;48.010;11.326;2023-05-21T00:36:57;10.23;;;8.02;;
21297;SDS011;10808;48.010;11.326;2023-05-21T00:39:23;10.82;;;8.02;;
21297;SDS011;10808;48.010;11.326;2023-05-21T00:41:49;12.90;;;8.25;;
21297;SDS011;10808;48.010;11.326;2023-05-21T00:44:16;10.05;;;8.30;;
21297;SDS011;10808;48.010;11.326;2023-05-21T00:46:43;12.25;;;8.35;;
21297;SDS011;10808;48.010;11.326;2023-05-21T00:49:09;8.93;;;7.83;;
21297;SDS011;10808;48.010;11.326;2023-05-21T00:51:36;9.38;;;7.70;;
21297;SDS011;10808;48.010;11.326;2023-05-21T00:54:02;10.20;;;7.90;;
21297;SDS011;10808;48.010;11.326;2023-05-21T00:56:28;14.30;;;7.97;;
21297;SDS011;10808;48.010;11.326;2023-05-21T00:58:55;8.77;;;7.88;;
21297;SDS011;10808;48.010;11.326;2023-05-21T01:01:22;9.05;;;7.72;;
21297;SDS011;10808;48.010;11.326;2023-05-21T01:03:53;9.27;;;8.00;;
21297;SDS011;10808;48.010;11.326;2023-05-21T01:06:21;10.85;;;7.95;;
21297;SDS011;10808;48.010;11.326;2023-05-21T01:08:47;9.80;;;7.95;;
21297;SDS011;10808;48.010;11.326;2023-05-21T01:11:15;10.80;;;8.48;;
21297;SDS011;10808;48.010;11.326;2023-05-21T01:13:43;8.53;;;7.63;;
21297;SDS011;10808;48.010;11.326;2023-05-21T01:16:11;13.23;;;7.93;;
21297;SDS011;10808;48.010;11.326;2023-05-21T01:18:38;9.88;;;7.82;;
21297;SDS011;10808;48.010;11.326;2023-05-21T01:21:04;9.23;;;7.68;;
21297;SDS011;10808;48.010;11.326;2023-05-21T01:23:31;10.13;;;7.70;;
21297;SDS011;10808;48.010;11.326;2023-05-21T01:25:58;9.63;;;7.75;;
21297;SDS011;10808;48.010;11.326;2023-05-21T01:28:24;10.40;;;7.97;;
21297;SDS011;10808;48.010;11.326;2023-05-21T01:30:50;10.50;;;7.97;;
21297;SDS011;10808;48.010;11.326;2023-05-21T01:33:28;9.45;;;7.88;;
21297;SDS011;10808;48.010;11.326;2023-05-21T01:36:17;10.00;;;7.65;;
21297;SDS011;10808;48.010;11.326;2023-05-21T01:39:07;8.82;;;7.50;;
21297;SDS011;10808;48.010;11.326;2023-05-21T01:41:41;11.27;;;7.70;;
21297;SDS011;10808;48.010;11.326;2023-05-21T01:44:10;10.20;;;7.55;;
21297;SDS011;10808;48.010;11.326;2023-05-21T01:46:37;10.10;;;7.85;;
21297;SDS011;10808;48.010;11.326;2023-05-21T01:49:04;10.85;;;8.45;;
21297;SDS011;10808;48.010;11.326;2023-05-21T01:51:32;9.00;;;7.25;;
21297;SDS011;10808;48.010;11.326;2023-05-21T01:53:58;11.10;;;7.70;;
21297;SDS011;10808;48.010;11.326;2023-05-21T01:56:25;9.67;;;7.23;;
21297;SDS011;10808;48.010;11.326;2023-05-21T01:58:54;11.88;;;7.30;;
21297;SDS011;10808;48.010;11.326;2023-05-21T02:01:22;8.93;;;7.45;;
21297;SDS011;10808;48.010;11.326;2023-05-21T02:03:48;9.23;;;7.28;;
21297;SDS011;10808;48.010;11.326;2023-05-21T02:06:15;10.43;;;7.32;;
21297;SDS011;10808;48.010;11.326;2023-05-21T02:08:41;9.05;;;7.25;;
21297;SDS011;10808;48.010;11.326;2023-05-21T02:11:07;8.83;;;7.37;;
21297;SDS011;10808;48.010;11.326;2023-05-21T02:13:33;9.10;;;7.13;;
21297;SDS011;10808;48.010;11.326;2023-05-21T02:15:59;10.53;;;7.50;;
21297;SDS011;10808;48.010;11.326;2023-05-21T02:18:25;8.40;;;7.00;;
21297;SDS011;10808;48.010;11.326;2023-05-21T02:20:53;9.32;;;7.40;;
21297;SDS011;10808;48.010;11.326;2023-05-21T02:23:20;10.18;;;7.38;;
21297;SDS011;10808;48.010;11.326;2023-05-21T02:25:46;8.47;;;7.10;;
21297;SDS011;10808;48.010;11.326;2023-05-21T02:28:12;9.33;;;7.20;;
21297;SDS011;10808;48.010;11.326;2023-05-21T02:30:38;9.65;;;7.32;;
21297;SDS011;10808;48.010;11.326;2023-05-21T02:33:04;9.40;;;7.10;;
21297;SDS011;10808;48.010;11.326;2023-05-21T02:35:33;9.48;;;6.97;;
21297;SDS011;10808;48.010;11.326;2023-05-21T02:37:59;10.32;;;7.10;;
21297;SDS011;10808;48.010;11.326;2023-05-21T02:40:27;10.05;;;6.88;;
21297;SDS011;10808;48.010;11.326;2023-05-21T02:42:53;10.10;;;7.28;;
21297;SDS011;10808;48.010;11.326;2023-05-21T02:45:19;11.35;;;6.78;;
21297;SDS011;10808;48.010;11.326;2023-05-21T02:47:45;9.35;;;6.93;;
21297;SDS011;10808;48.010;11.326;2023-05-21T02:50:12;8.27;;;6.90;;
21297;SDS011;10808;48.010;11.326;2023-05-21T02:52:38;8.95;;;7.43;;
21297;SDS011;10808;48.010;11.326;2023-05-21T02:55:04;10.30;;;7.05;;
21297;SDS011;10808;48.010;11.326;2023-05-21T02:57:31;10.02;;;7.18;;
21297;SDS011;10808;48.010;11.326;2023-05-21T02:59:57;7.72;;;6.93;;
21297;SDS011;10808;48.010;11.326;2023-05-21T03:02:23;8.25;;;6.97;;
21297;SDS011;10808;48.010;11.326;2023-05-21T03:04:49;9.68;;;6.90;;
21297;SDS011;10808;48.010;11.326;2023-05-21T03:07:15;9.52;;;6.88;;
21297;SDS011;10808;48.010;11.326;2023-05-21T03:09:45;8.15;;;7.00;;
21297;SDS011;10808;48.010;11.326;2023-05-21T03:12:11;9.52;;;7.03;;
21297;SDS011;10808;48.010;11.326;2023-05-21T03:14:37;8.90;;;7.07;;
21297;SDS011;10808;48.010;11.326;2023-05-21T03:17:04;7.93;;;6.97;;
21297;SDS011;10808;48.010;11.326;2023-05-21T03:19:30;8.90;;;6.75;;
21297;SDS011;10808;48.010;11.326;2023-05-21T03:21:59;9.48;;;6.95;;
21297;SDS011;10808;48.010;11.326;2023-05-21T03:24:26;9.35;;;6.50;;
21297;SDS011;10808;48.010;11.326;2023-05-21T03:26:53;8.23;;;6.82;;
21297;SDS011;10808;48.010;11.326;2023-05-21T03:29:19;9.77;;;6.90;;
21297;SDS011;10808;48.010;11.326;2023-05-21T03:31:46;8.98;;;7.13;;
21297;SDS011;10808;48.010;11.326;2023-05-21T03:34:12;8.90;;;7.30;;
21297;SDS011;10808;48.010;11.326;2023-05-21T03:36:38;9.10;;;7.07;;
21297;SDS011;10808;48.010;11.326;2023-05-21T03:39:04;8.18;;;7.10;;
21297;SDS011;10808;48.010;11.326;2023-05-21T03:41:31;10.30;;;6.75;;
21297;SDS011;10808;48.010;11.326;2023-05-21T03:43:57;8.60;;;6.88;;
21297;SDS011;10808;48.010;11.326;2023-05-21T03:46:23;10.70;;;7.22;;
21297;SDS011;10808;48.010;11.326;2023-05-21T03:48:50;9.10;;;7.30;;
21297;SDS011;10808;48.010;11.326;2023-05-21T03:51:16;8.65;;;6.85;;
21297;SDS011;10808;48.010;11.326;2023-05-21T03:53:42;12.98;;;7.60;;
21297;SDS011;10808;48.010;11.326;2023-05-21T03:56:08;8.00;;;6.93;;
21297;SDS011;10808;48.010;11.326;2023-05-21T03:58:34;9.40;;;7.13;;
21297;SDS011;10808;48.010;11.326;2023-05-21T04:01:01;8.57;;;6.95;;
21297;SDS011;10808;48.010;11.326;2023-05-21T04:03:29;8.20;;;6.85;;
21297;SDS011;10808;48.010;11.326;2023-05-21T04:05:57;8.32;;;7.10;;
21297;SDS011;10808;48.010;11.326;2023-05-21T04:08:23;11.00;;;7.43;;
21297;SDS011;10808;48.010;11.326;2023-05-21T04:10:49;8.98;;;6.97;;
21297;SDS011;10808;48.010;11.326;2023-05-21T04:13:15;8.23;;;6.60;;
21297;SDS011;10808;48.010;11.326;2023-05-21T04:15:41;8.40;;;6.85;;
21297;SDS011;10808;48.010;11.326;2023-05-21T04:18:09;8.88;;;6.53;;
21297;SDS011;10808;48.010;11.326;2023-05-21T04:20:35;9.20;;;6.80;;
21297;SDS011;10808;48.010;11.326;2023-05-21T04:23:01;8.38;;;6.30;;
21297;SDS011;10808;48.010;11.326;2023-05-21T04:25:27;9.02;;;6.68;;
21297;SDS011;10808;48.010;11.326;2023-05-21T04:27:53;7.53;;;6.57;;
21297;SDS011;10808;48.010;11.326;2023-05-21T04:30:19;8.40;;;6.45;;
21297;SDS011;10808;48.010;11.326;2023-05-21T04:32:46;8.20;;;6.53;;
21297;SDS011;10808;48.010;11.326;2023-05-21T04:35:12;7.35;;;6.55;;
21297;SDS011;10808;48.010;11.326;2023-05-21T04:37:39;8.13;;;6.43;;
21297;SDS011;10808;48.010;11.326;2023-05-21T04:40:07;11.05;;;6.90;;
21297;SDS011;10808;48.010;11.326;2023-05-21T04:42:34;9.07;;;6.57;;
21297;SDS011;10808;48.010;11.326;2023-05-21T04:45:00;9.90;;;6.70;;
21297;SDS011;10808;48.010;11.326;2023-05-21T04:47:26;9.00;;;6.70;;
21297;SDS011;10808;48.010;11.326;2023-05-21T04:49:54;8.52;;;6.65;;
21297;SDS011;10808;48.010;11.326;2023-05-21T04:52:20;10.65;;;7.30;;
21297;SDS011;10808;48.010;11.326;2023-05-21T04:54:49;8.55;;;6.70;;
21297;SDS011;10808;48.010;11.326;2023-05-21T04:57:15;8.93;;;6.78;;
21297;SDS011;10808;48.010;11.326;2023-05-21T04:59:42;7.72;;;6.90;;
21297;SDS011;10808;48.010;11.326;2023-05-21T05:02:08;8.00;;;6.57;;
21297;SDS011;10808;48.010;11.326;2023-05-21T05:04:34;7.85;;;6.97;;
21297;SDS011;10808;48.010;11.326;2023-05-21T05:07:00;10.60;;;7.30;;
21297;SDS011;10808;48.010;11.326;2023-05-21T05:09:26;10.55;;;7.05;;
21297;SDS011;10808;48.010;11.326;2023-05-21T05:11:54;8.25;;;6.82;;
21297;SDS011;10808;48.010;11.326;2023-05-21T05:14:20;8.40;;;7.10;;
21297;SDS011;10808;48.010;11.326;2023-05-21T05:16:46;8.57;;;7.05;;
21297;SDS011;10808;48.010;11.326;2023-05-21T05:19:15;9.20;;;7.03;;
21297;SDS011;10808;48.010;11.326;2023-05-21T05:21:41;9.27;;;6.90;;
21297;SDS011;10808;48.010;11.326;2023-05-21T05:24:07;8.17;;;7.00;;
21297;SDS011;10808;48.010;11.326;2023-05-21T05:26:33;10.63;;;7.13;;
21297;SDS011;10808;48.010;11.326;2023-05-21T05:28:59;8.63;;;6.77;;
21297;SDS011;10808;48.010;11.326;2023-05-21T05:31:25;7.77;;;6.80;;
21297;SDS011;10808;48.010;11.326;2023-05-21T05:33:51;8.18;;;7.00;;
21297;SDS011;10808;48.010;11.326;2023-05-21T05:36:17;8.38;;;6.80;;
21297;SDS011;10808;48.010;11.326;2023-05-21T05:38:43;8.60;;;6.93;;
21297;SDS011;10808;48.010;11.326;2023-05-21T05:41:09;9.57;;;6.75;;
21297;SDS011;10808;48.010;11.326;2023-05-21T05:43:35;8.00;;;6.68;;
21297;SDS011;10808;48.010;11.326;2023-05-21T05:46:01;9.70;;;6.35;;
21297;SDS011;10808;48.010;11.326;2023-05-21T05:48:27;9.23;;;6.95;;
21297;SDS011;10808;48.010;11.326;2023-05-21T05:50:53;8.77;;;6.38;;
21297;SDS011;10808;48.010;11.326;2023-05-21T05:53:20;8.43;;;6.53;;
21297;SDS011;10808;48.010;11.326;2023-05-21T05:55:46;6.93;;;6.23;;
21297;SDS011;10808;48.010;11.326;2023-05-21T05:58:12;8.70;;;6.27;;
21297;SDS011;10808;48.010;11.326;2023-05-21T06:00:38;7.60;;;6.40;;
21297;SDS011;10808;48.010;11.326;2023-05-21T06:03:04;10.97;;;6.37;;
21297;SDS011;10808;48.010;11.326;2023-05-21T06:05:30;7.23;;;6.37;;
21297;SDS011;10808;48.010;11.326;2023-05-21T06:07:56;8.73;;;6.47;;
21297;SDS011;10808;48.010;11.326;2023-05-21T06:10:22;11.05;;;6.50;;
21297;SDS011;10808;48.010;11.326;2023-05-21T06:12:48;7.38;;;6.18;;
21297;SDS011;10808;48.010;11.326;2023-05-21T06:15:14;6.97;;;6.20;;
21297;SDS011;10808;48.010;11.326;2023-05-21T06:17:40;6.70;;;5.82;;
21297;SDS011;10808;48.010;11.326;2023-05-21T06:20:07;7.75;;;6.07;;
21297;SDS011;10808;48.010;11.326;2023-05-21T06:22:34;7.32;;;5.93;;
21297;SDS011;10808;48.010;11.326;2023-05-21T06:25:01;9.73;;;6.40;;
21297;SDS011;10808;48.010;11.326;2023-05-21T06:27:27;7.22;;;6.05;;
21297;SDS011;10808;48.010;11.326;2023-05-21T06:29:53;7.57;;;5.93;;
21297;SDS011;10808;48.010;11.326;2023-05-21T06:32:19;8.50;;;6.03;;
21297;SDS011;10808;48.010;11.326;2023-05-21T06:34:45;7.57;;;5.97;;
21297;SDS011;10808;48.010;11.326;2023-05-21T06:37:11;7.20;;;6.15;;
21297;SDS011;10808;48.010;11.326;2023-05-21T06:39:37;8.32;;;6.10;;
21297;SDS011;10808;48.010;11.326;2023-05-21T06:42:04;7.38;;;6.32;;
21297;SDS011;10808;48.010;11.326;2023-05-21T06:44:30;6.63;;;5.80;;
21297;SDS011;10808;48.010;11.326;2023-05-21T06:46:56;6.82;;;6.13;;
21297;SDS011;10808;48.010;11.326;2023-05-21T06:49:22;7.28;;;6.03;;
21297;SDS011;10808;48.010;11.326;2023-05-21T06:51:48;7.15;;;5.72;;
21297;SDS011;10808;48.010;11.326;2023-05-21T06:54:14;7.75;;;6.18;;
21297;SDS011;10808;48.010;11.326;2023-05-21T06:56:40;7.60;;;6.28;;
21297;SDS011;10808;48.010;11.326;2023-05-21T06:59:06;8.83;;;6.33;;
21297;SDS011;10808;48.010;11.326;2023-05-21T07:01:32;8.37;;;6.10;;
21297;SDS011;10808;48.010;11.326;2023-05-21T07:03:58;7.88;;;6.38;;
21297;SDS011;10808;48.010;11.326;2023-05-21T07:06:24;9.52;;;6.15;;
21297;SDS011;10808;48.010;11.326;2023-05-21T07:08:50;7.70;;;6.07;;
21297;SDS011;10808;48.010;11.326;2023-05-21T07:11:16;8.88;;;5.97;;
21297;SDS011;10808;48.010;11.326;2023-05-21T07:13:43;8.45;;;6.28;;
21297;SDS011;10808;48.010;11.326;2023-05-21T07:16:09;7.45;;;6.10;;
21297;SDS011;10808;48.010;11.326;2023-05-21T07:18:35;7.35;;;5.93;;
21297;SDS011;10808;48.010;11.326;2023-05-21T07:21:01;10.15;;;6.32;;
21297;SDS011;10808;48.010;11.326;2023-05-21T07:23:27;6.90;;;6.10;;
21297;SDS011;10808;48.010;11.326;2023-05-21T07:25:53;6.25;;;5.43;;
21297;SDS011;10808;48.010;11.326;2023-05-21T07:28:19;7.38;;;5.97;;
21297;SDS011;10808;48.010;11.326;2023-05-21T07:30:45;8.20;;;5.50;;
21297;SDS011;10808;48.010;11.326;2023-05-21T07:33:11;6.55;;;5.90;;
21297;SDS011;10808;48.010;11.326;2023-05-21T07:35:37;7.85;;;6.15;;
21297;SDS011;10808;48.010;11.326;2023-05-21T07:38:03;7.07;;;6.05;;
21297;SDS011;10808;48.010;11.326;2023-05-21T07:40:29;6.27;;;5.67;;
21297;SDS011;10808;48.010;11.326;2023-05-21T07:42:55;6.68;;;5.97;;
21297;SDS011;10808;48.010;11.326;2023-05-21T07:45:21;6.63;;;5.88;;
21297;SDS011;10808;48.010;11.326;2023-05-21T07:47:47;6.30;;;5.70;;
21297;SDS011;10808;48.010;11.326;2023-05-21T07:50:16;8.40;;;5.78;;
21297;SDS011;10808;48.010;11.326;2023-05-21T07:52:42;7.80;;;6.00;;
21297;SDS011;10808;48.010;11.326;2023-05-21T07:55:08;7.57;;;5.88;;
21297;SDS011;10808;48.010;11.326;2023-05-21T07:57:34;6.72;;;5.88;;
21297;SDS011;10808;48.010;11.326;2023-05-21T08:00:01;6.10;;;5.50;;
21297;SDS011;10808;48.010;11.326;2023-05-21T08:02:27;8.37;;;6.00;;
21297;SDS011;10808;48.010;11.326;2023-05-21T08:04:53;6.55;;;5.70;;
21297;SDS011;10808;48.010;11.326;2023-05-21T08:07:19;7.38;;;6.20;;
21297;SDS011;10808;48.010;11.326;2023-05-21T08:09:46;7.00;;;5.30;;
21297;SDS011;10808;48.010;11.326;2023-05-21T08:12:12;6.47;;;5.70;;
21297;SDS011;10808;48.010;11.326;2023-05-21T08:14:40;7.78;;;6.03;;
21297;SDS011;10808;48.010;11.326;2023-05-21T08:17:10;7.15;;;5.80;;
21297;SDS011;10808;48.010;11.326;2023-05-21T08:19:36;6.68;;;5.65;;
21297;SDS011;10808;48.010;11.326;2023-05-21T08:22:02;6.65;;;5.57;;
21297;SDS011;10808;48.010;11.326;2023-05-21T08:24:28;6.30;;;5.70;;
21297;SDS011;10808;48.010;11.326;2023-05-21T08:26:54;6.20;;;5.60;;
21297;SDS011;10808;48.010;11.326;2023-05-21T08:29:20;6.20;;;5.55;;
21297;SDS011;10808;48.010;11.326;2023-05-21T08:31:46;6.43;;;5.57;;
21297;SDS011;10808;48.010;11.326;2023-05-21T08:34:12;5.82;;;5.22;;
21297;SDS011;10808;48.010;11.326;2023-05-21T08:36:38;7.57;;;5.43;;
21297;SDS011;10808;48.010;11.326;2023-05-21T08:39:07;6.97;;;5.70;;
21297;SDS011;10808;48.010;11.326;2023-05-21T08:41:34;6.28;;;5.55;;
21297;SDS011;10808;48.010;11.326;2023-05-21T08:44:02;6.25;;;5.40;;
21297;SDS011;10808;48.010;11.326;2023-05-21T08:46:32;8.02;;;5.63;;
21297;SDS011;10808;48.010;11.326;2023-05-21T08:49:01;6.28;;;5.68;;
21297;SDS011;10808;48.010;11.326;2023-05-21T08:51:28;6.07;;;5.47;;
21297;SDS011;10808;48.010;11.326;2023-05-21T08:53:55;6.10;;;5.50;;
21297;SDS011;10808;48.010;11.326;2023-05-21T08:56:22;6.38;;;5.78;;
21297;SDS011;10808;48.010;11.326;2023-05-21T08:58:49;9.50;;;5.60;;
21297;SDS011;10808;48.010;11.326;2023-05-21T09:01:16;7.15;;;5.53;;
21297;SDS011;10808;48.010;11.326;2023-05-21T09:03:43;6.25;;;5.65;;
21297;SDS011;10808;48.010;11.326;2023-05-21T09:06:11;7.80;;;5.65;;
21297;SDS011;10808;48.010;11.326;2023-05-21T09:08:42;6.30;;;5.70;;
21297;SDS011;10808;48.010;11.326;2023-05-21T09:11:10;7.40;;;5.80;;
21297;SDS011;10808;48.010;11.326;2023-05-21T09:13:39;6.18;;;5.50;;
21297;SDS011;10808;48.010;11.326;2023-05-21T09:16:06;7.20;;;5.80;;
21297;SDS011;10808;48.010;11.326;2023-05-21T09:18:33;6.43;;;5.82;;
21297;SDS011;10808;48.010;11.326;2023-05-21T09:21:21;7.95;;;5.90;;
21297;SDS011;10808;48.010;11.326;2023-05-21T09:23:56;7.53;;;5.60;;
21297;SDS011;10808;48.010;11.326;2023-05-21T09:26:23;6.03;;;5.38;;
21297;SDS011;10808;48.010;11.326;2023-05-21T09:28:51;6.83;;;6.00;;
21297;SDS011;10808;48.010;11.326;2023-05-21T09:31:22;8.57;;;5.80;;
21297;SDS011;10808;48.010;11.326;2023-05-21T09:33:48;6.82;;;5.70;;
21297;SDS011;10808;48.010;11.326;2023-05-21T09:36:18;7.75;;;5.80;;
21297;SDS011;10808;48.010;11.326;2023-05-21T09:38:46;6.43;;;5.83;;
21297;SDS011;10808;48.010;11.326;2023-05-21T09:41:13;6.68;;;5.60;;
21297;SDS011;10808;48.010;11.326;2023-05-21T09:43:42;6.95;;;5.93;;
21297;SDS011;10808;48.010;11.326;2023-05-21T09:46:09;6.63;;;6.03;;
21297;SDS011;10808;48.010;11.326;2023-05-21T09:51:16;9.30;;;5.82;;
21297;SDS011;10808;48.010;11.326;2023-05-21T09:56:09;6.75;;;5.80;;
21297;SDS011;10808;48.010;11.326;2023-05-21T09:58:36;7.00;;;5.95;;
21297;SDS011;10808;48.010;11.326;2023-05-21T10:01:03;7.13;;;6.40;;
21297;SDS011;10808;48.010;11.326;2023-05-21T10:03:29;6.40;;;5.80;;
21297;SDS011;10808;48.010;11.326;2023-05-21T10:05:57;6.38;;;5.78;;
21297;SDS011;10808;48.010;11.326;2023-05-21T10:08:25;7.25;;;5.90;;
21297;SDS011;10808;48.010;11.326;2023-05-21T10:10:55;6.93;;;6.13;;
21297;SDS011;10808;48.010;11.326;2023-05-21T10:13:21;6.75;;;5.97;;
21297;SDS011;10808;48.010;11.326;2023-05-21T10:15:50;6.82;;;5.97;;
21297;SDS011;10808;48.010;11.326;2023-05-21T10:18:21;7.40;;;6.47;;
21297;SDS011;10808;48.010;11.326;2023-05-21T10:20:49;6.55;;;5.80;;
21297;SDS011;10808;48.010;11.326;2023-05-21T10:23:17;6.10;;;5.50;;
21297;SDS011;10808;48.010;11.326;2023-05-21T10:25:44;7.70;;;5.57;;
21297;SDS011;10808;48.010;11.326;2023-05-21T10:28:10;8.23;;;6.25;;
21297;SDS011;10808;48.010;11.326;2023-05-21T10:30:41;7.35;;;6.43;;
21297;SDS011;10808;48.010;11.326;2023-05-21T10:33:07;7.03;;;5.80;;
21297;SDS011;10808;48.010;11.326;2023-05-21T10:35:33;8.52;;;6.00;;
21297;SDS011;10808;48.010;11.326;2023-05-21T10:38:03;6.30;;;5.70;;
21297;SDS011;10808;48.010;11.326;2023-05-21T10:40:30;6.50;;;5.80;;
21297;SDS011;10808;48.010;11.326;2023-05-21T10:45:41;6.90;;;6.10;;
21297;SDS011;10808;48.010;11.326;2023-05-21T10:49:13;7.25;;;6.10;;
21297;SDS011;10808;48.010;11.326;2023-05-21T10:51:26;7.43;;;5.85;;
21297;SDS011;10808;48.010;11.326;2023-05-21T10:54:16;6.30;;;5.60;;
21297;SDS011;10808;48.010;11.326;2023-05-21T10:56:55;7.73;;;6.13;;
21297;SDS011;10808;48.010;11.326;2023-05-21T10:59:39;6.57;;;5.93;;
21297;SDS011;10808;48.010;11.326;2023-05-21T11:02:08;6.57;;;5.88;;
21297;SDS011;10808;48.010;11.326;2023-05-21T11:04:37;6.28;;;5.68;;
21297;SDS011;10808;48.010;11.326;2023-05-21T11:07:06;6.40;;;5.68;;
21297;SDS011;10808;48.010;11.326;2023-05-21T11:09:32;9.10;;;5.60;;
21297;SDS011;10808;48.010;11.326;2023-05-21T11:11:59;6.80;;;5.50;;
21297;SDS011;10808;48.010;11.326;2023-05-21T11:14:30;6.10;;;5.50;;
21297;SDS011;10808;48.010;11.326;2023-05-21T11:17:35;6.13;;;5.53;;
21297;SDS011;10808;48.010;11.326;2023-05-21T11:20:03;7.53;;;5.57;;
21297;SDS011;10808;48.010;11.326;2023-05-21T11:22:33;5.75;;;5.07;;
21297;SDS011;10808;48.010;11.326;2023-05-21T11:25:01;6.10;;;5.50;;
21297;SDS011;10808;48.010;11.326;2023-05-21T11:27:32;6.72;;;5.75;;
21297;SDS011;10808;48.010;11.326;2023-05-21T11:30:07;6.30;;;5.70;;
21297;SDS011;10808;48.010;11.326;2023-05-21T11:32:38;6.63;;;5.78;;
21297;SDS011;10808;48.010;11.326;2023-05-21T11:35:04;5.82;;;5.30;;
21297;SDS011;10808;48.010;11.326;2023-05-21T11:37:32;8.32;;;5.50;;
21297;SDS011;10808;48.010;11.326;2023-05-21T11:40:15;6.88;;;5.90;;
21297;SDS011;10808;48.010;11.326;2023-05-21T11:42:42;7.97;;;5.50;;
21297;SDS011;10808;48.010;11.326;2023-05-21T11:45:15;9.25;;;5.40;;
21297;SDS011;10808;48.010;11.326;2023-05-21T11:47:43;8.10;;;5.85;;
21297;SDS011;10808;48.010;11.326;2023-05-21T11:50:12;7.60;;;5.38;;
21297;SDS011;10808;48.010;11.326;2023-05-21T11:52:40;6.10;;;5.53;;
21297;SDS011;10808;48.010;11.326;2023-05-21T11:55:06;5.57;;;5.07;;
21297;SDS011;10808;48.010;11.326;2023-05-21T11:57:33;5.60;;;5.10;;
21297;SDS011;10808;48.010;11.326;2023-05-21T12:00:00;6.72;;;5.22;;
21297;SDS011;10808;48.010;11.326;2023-05-21T12:02:30;5.80;;;5.20;;
21297;SDS011;10808;48.010;11.326;2023-05-21T12:04:57;5.37;;;4.87;;
21297;SDS011;10808;48.010;11.326;2023-05-21T12:07:27;5.90;;;5.30;;
21297;SDS011;10808;48.010;11.326;2023-05-21T12:09:57;6.88;;;4.78;;
21297;SDS011;10808;48.010;11.326;2023-05-21T12:12:25;5.50;;;4.60;;
21297;SDS011;10808;48.010;11.326;2023-05-21T12:14:52;5.60;;;4.50;;
21297;SDS011;10808;48.010;11.326;2023-05-21T12:17:22;7.33;;;5.13;;
21297;SDS011;10808;48.010;11.326;2023-05-21T12:19:50;5.75;;;5.07;;
21297;SDS011;10808;48.010;11.326;2023-05-21T12:22:18;6.67;;;5.40;;
21297;SDS011;10808;48.010;11.326;2023-05-21T12:24:45;6.10;;;5.50;;
21297;SDS011;10808;48.010;11.326;2023-05-21T12:27:11;5.95;;;5.38;;
21297;SDS011;10808;48.010;11.326;2023-05-21T12:29:38;7.97;;;5.32;;
21297;SDS011;10808;48.010;11.326;2023-05-21T12:32:07;6.30;;;5.70;;
21297;SDS011;10808;48.010;11.326;2023-05-21T12:34:44;8.13;;;5.88;;
21297;SDS011;10808;48.010;11.326;2023-05-21T12:37:15;6.75;;;5.90;;
21297;SDS011;10808;48.010;11.326;2023-05-21T12:40:00;6.57;;;5.95;;
21297;SDS011;10808;48.010;11.326;2023-05-21T12:42:32;6.55;;;5.78;;
21297;SDS011;10808;48.010;11.326;2023-05-21T12:45:04;6.45;;;5.55;;
21297;SDS011;10808;48.010;11.326;2023-05-21T12:47:31;7.72;;;5.80;;
21297;SDS011;10808;48.010;11.326;2023-05-21T12:49:58;8.20;;;5.72;;
21297;SDS011;10808;48.010;11.326;2023-05-21T12:52:25;6.80;;;6.00;;
21297;SDS011;10808;48.010;11.326;2023-05-21T12:54:53;6.47;;;5.80;;
21297;SDS011;10808;48.010;11.326;2023-05-21T12:57:24;6.60;;;5.93;;
21297;SDS011;10808;48.010;11.326;2023-05-21T13:00:00;7.40;;;5.70;;
21297;SDS011;10808;48.010;11.326;2023-05-21T13:02:32;7.53;;;5.87;;
21297;SDS011;10808;48.010;11.326;2023-05-21T13:05:00;6.25;;;5.53;;
21297;SDS011;10808;48.010;11.326;2023-05-21T13:07:28;6.93;;;5.90;;
21297;SDS011;10808;48.010;11.326;2023-05-21T13:09:56;6.80;;;5.88;;
21297;SDS011;10808;48.010;11.326;2023-05-21T13:12:27;6.68;;;5.55;;
21297;SDS011;10808;48.010;11.326;2023-05-21T13:14:57;7.03;;;5.60;;
21297;SDS011;10808;48.010;11.326;2023-05-21T13:17:25;7.05;;;5.90;;
21297;SDS011;10808;48.010;11.326;2023-05-21T13:20:08;8.60;;;5.53;;
21297;SDS011;10808;48.010;11.326;2023-05-21T13:23:12;5.93;;;5.40;;
21297;SDS011;10808;48.010;11.326;2023-05-21T13:25:31;5.90;;;5.30;;
21297;SDS011;10808;48.010;11.326;2023-05-21T13:28:00;5.97;;;5.37;;
21297;SDS011;10808;48.010;11.326;2023-05-21T13:30:27;6.38;;;5.55;;
21297;SDS011;10808;48.010;11.326;2023-05-21T13:32:53;5.82;;;5.28;;
21297;SDS011;10808;48.010;11.326;2023-05-21T13:35:19;7.47;;;5.80;;
21297;SDS011;10808;48.010;11.326;2023-05-21T13:37:46;6.25;;;5.13;;
21297;SDS011;10808;48.010;11.326;2023-05-21T13:40:12;9.30;;;7.75;;
21297;SDS011;10808;48.010;11.326;2023-05-21T13:42:40;5.88;;;5.28;;
21297;SDS011;10808;48.010;11.326;2023-05-21T13:45:07;7.70;;;5.60;;
21297;SDS011;10808;48.010;11.326;2023-05-21T13:47:35;7.43;;;5.40;;
21297;SDS011;10808;48.010;11.326;2023-05-21T13:50:02;6.32;;;5.45;;
21297;SDS011;10808;48.010;11.326;2023-05-21T13:52:28;6.50;;;5.20;;
21297;SDS011;10808;48.010;11.326;2023-05-21T13:54:54;6.82;;;5.30;;
21297;SDS011;10808;48.010;11.326;2023-05-21T13:57:20;6.47;;;5.60;;
21297;SDS011;10808;48.010;11.326;2023-05-21T13:59:46;7.13;;;5.53;;
21297;SDS011;10808;48.010;11.326;2023-05-21T14:02:12;6.70;;;5.33;;
21297;SDS011;10808;48.010;11.326;2023-05-21T14:04:38;6.75;;;5.55;;
21297;SDS011;10808;48.010;11.326;2023-05-21T14:07:04;8.47;;;5.67;;
21297;SDS011;10808;48.010;11.326;2023-05-21T14:09:31;6.75;;;5.35;;
21297;SDS011;10808;48.010;11.326;2023-05-21T14:11:57;6.65;;;5.72;;
21297;SDS011;10808;48.010;11.326;2023-05-21T14:14:23;5.82;;;5.32;;
21297;SDS011;10808;48.010;11.326;2023-05-21T14:16:49;5.78;;;5.20;;
21297;SDS011;10808;48.010;11.326;2023-05-21T14:19:16;7.13;;;5.53;;
21297;SDS011;10808;48.010;11.326;2023-05-21T14:21:42;5.78;;;5.20;;
21297;SDS011;10808;48.010;11.326;2023-05-21T14:24:09;6.30;;;5.47;;
21297;SDS011;10808;48.010;11.326;2023-05-21T14:26:36;7.17;;;5.40;;
21297;SDS011;10808;48.010;11.326;2023-05-21T14:29:05;6.88;;;5.78;;
21297;SDS011;10808;48.010;11.326;2023-05-21T14:31:31;6.28;;;5.68;;
21297;SDS011;10808;48.010;11.326;2023-05-21T14:33:57;5.90;;;5.40;;
21297;SDS011;10808;48.010;11.326;2023-05-21T14:36:23;6.33;;;5.37;;
21297;SDS011;10808;48.010;11.326;2023-05-21T14:38:49;14.48;;;12.98;;
21297;SDS011;10808;48.010;11.326;2023-05-21T14:41:15;8.50;;;7.30;;
21297;SDS011;10808;48.010;11.326;2023-05-21T14:43:41;5.78;;;5.22;;